createdAt,value
2022-12-18T00:02:15.934Z,3.77
2022-12-18T00:05:19.004Z,4.13
2022-12-18T00:08:22.014Z,3.80
2022-12-18T00:11:27.159Z,3.97
2022-12-18T00:14:30.183Z,3.67
2022-12-18T00:17:34.639Z,4.20
2022-12-18T00:20:41.980Z,3.90
2022-12-18T00:23:46.713Z,4.17
2022-12-18T00:26:49.711Z,3.67
2022-12-18T00:29:52.833Z,4.10
2022-12-18T00:32:57.262Z,3.73
2022-12-18T00:36:03.268Z,3.63
2022-12-18T00:39:07.535Z,3.90
2022-12-18T00:42:30.501Z,4.23
2022-12-18T00:45:33.835Z,3.10
2022-12-18T00:48:38.289Z,3.40
2022-12-18T00:51:41.330Z,2.90
2022-12-18T00:54:44.356Z,3.70
2022-12-18T00:57:47.403Z,3.30
2022-12-18T01:00:50.492Z,3.40
2022-12-18T01:03:55.017Z,3.50
2022-12-18T01:06:58.042Z,2.97
2022-12-18T01:10:01.103Z,3.47
2022-12-18T01:13:04.116Z,3.40
2022-12-18T01:16:07.347Z,3.37
2022-12-18T01:19:12.535Z,3.23
2022-12-18T01:22:15.572Z,3.10
2022-12-18T01:25:18.776Z,3.33
2022-12-18T01:28:21.906Z,3.20
2022-12-18T01:31:27.223Z,3.37
2022-12-18T01:34:31.729Z,2.93
2022-12-18T01:37:34.823Z,3.37
2022-12-18T01:40:38.459Z,3.40
2022-12-18T01:43:52.149Z,2.83
2022-12-18T01:46:55.223Z,2.87
2022-12-18T01:50:02.612Z,3.40
2022-12-18T01:53:08.571Z,2.37
2022-12-18T01:56:15.839Z,2.70
2022-12-18T01:59:19.001Z,3.13
2022-12-18T02:02:22.834Z,2.80
2022-12-18T02:05:36.216Z,3.17
2022-12-18T02:08:46.121Z,3.00
2022-12-18T02:11:55.197Z,3.10
2022-12-18T02:15:05.033Z,2.87
2022-12-18T02:18:14.287Z,2.60
2022-12-18T02:21:29.601Z,3.00
2022-12-18T02:24:39.284Z,2.53
2022-12-18T02:27:46.453Z,2.70
2022-12-18T02:30:51.291Z,2.60
2022-12-18T02:33:56.852Z,3.03
2022-12-18T02:37:02.741Z,3.03
2022-12-18T02:40:07.625Z,2.50
2022-12-18T02:43:13.976Z,3.17
2022-12-18T02:46:29.575Z,2.63
2022-12-18T02:49:38.940Z,2.97
2022-12-18T02:52:51.679Z,3.00
2022-12-18T02:56:04.375Z,2.67
2022-12-18T02:59:13.988Z,2.60
2022-12-18T03:02:24.099Z,2.50
2022-12-18T03:05:33.547Z,3.00
2022-12-18T03:08:40.735Z,2.80
2022-12-18T03:12:06.393Z,2.60
2022-12-18T03:15:17.848Z,2.40
2022-12-18T03:18:25.869Z,2.60
2022-12-18T03:21:34.416Z,2.67
2022-12-18T03:24:40.647Z,2.70
2022-12-18T03:27:49.547Z,2.10
2022-12-18T03:30:58.809Z,2.30
2022-12-18T03:34:06.445Z,2.77
2022-12-18T03:37:09.735Z,2.50
2022-12-18T03:40:13.637Z,2.37
2022-12-18T03:43:22.805Z,2.17
2022-12-18T03:46:32.521Z,2.60
2022-12-18T03:49:40.596Z,2.53
2022-12-18T03:52:51.193Z,2.23
2022-12-18T03:55:54.779Z,2.37
2022-12-18T03:59:00.927Z,2.70
2022-12-18T04:02:09.183Z,2.60
2022-12-18T04:05:14.244Z,2.50
2022-12-18T04:08:17.608Z,2.37
2022-12-18T04:11:20.624Z,2.60
2022-12-18T04:14:23.700Z,2.37
2022-12-18T04:17:28.214Z,2.03
2022-12-18T04:20:31.240Z,2.57
2022-12-18T04:23:34.272Z,2.27
2022-12-18T04:26:37.302Z,2.77
2022-12-18T04:29:40.370Z,2.27
2022-12-18T04:32:49.039Z,2.70
2022-12-18T04:35:55.036Z,2.70
2022-12-18T04:38:58.087Z,2.30
2022-12-18T04:42:01.071Z,2.40
2022-12-18T04:45:04.359Z,2.20
2022-12-18T04:48:09.116Z,2.30
2022-12-18T04:51:12.387Z,2.30
2022-12-18T04:54:15.396Z,2.37
2022-12-18T04:57:19.089Z,2.53
2022-12-18T05:00:23.112Z,2.10
2022-12-18T05:03:27.509Z,2.00
2022-12-18T05:06:30.535Z,2.33
2022-12-18T05:09:33.508Z,2.57
2022-12-18T05:12:56.509Z,2.70
2022-12-18T05:16:00.888Z,2.27
2022-12-18T05:19:05.391Z,2.10
2022-12-18T05:22:08.456Z,2.10
2022-12-18T05:25:11.935Z,3.00
2022-12-18T05:28:14.928Z,2.30
2022-12-18T05:31:18.112Z,2.50
2022-12-18T05:34:22.599Z,2.40
2022-12-18T05:37:25.664Z,2.40
2022-12-18T05:40:28.636Z,2.50
2022-12-18T05:43:33.004Z,2.37
2022-12-18T05:46:36.067Z,2.67
2022-12-18T05:49:40.622Z,2.87
2022-12-18T05:52:43.748Z,2.80
2022-12-18T05:55:47.633Z,2.80
2022-12-18T05:58:54.030Z,2.50
2022-12-18T06:01:57.096Z,2.57
2022-12-18T06:05:01.617Z,2.73
2022-12-18T06:08:04.952Z,2.60
2022-12-18T06:11:07.994Z,2.97
2022-12-18T06:14:12.233Z,2.97
2022-12-18T06:17:15.271Z,2.87
2022-12-18T06:20:19.849Z,2.70
2022-12-18T06:23:22.964Z,2.70
2022-12-18T06:26:28.324Z,2.90
2022-12-18T06:29:31.697Z,2.60
2022-12-18T06:32:34.879Z,3.20
2022-12-18T06:35:39.286Z,2.80
2022-12-18T06:38:44.135Z,2.80
2022-12-18T06:41:47.212Z,3.20
2022-12-18T06:44:50.314Z,2.90
2022-12-18T06:47:53.396Z,2.93
2022-12-18T06:50:57.835Z,3.27
2022-12-18T06:54:00.808Z,3.10
2022-12-18T06:57:03.871Z,2.43
2022-12-18T07:00:08.560Z,2.60
2022-12-18T07:03:11.670Z,2.97
2022-12-18T07:06:19.546Z,3.03
2022-12-18T07:09:22.764Z,2.77
2022-12-18T07:12:25.816Z,3.07
2022-12-18T07:15:29.052Z,2.63
2022-12-18T07:18:32.099Z,2.93
2022-12-18T07:21:36.550Z,3.10
2022-12-18T07:24:39.516Z,3.03
2022-12-18T07:27:42.600Z,2.97
2022-12-18T07:30:45.671Z,3.20
2022-12-18T07:33:49.103Z,3.47
2022-12-18T07:36:53.571Z,3.17
2022-12-18T07:39:56.533Z,2.80
2022-12-18T07:42:59.575Z,3.60
2022-12-18T07:46:02.720Z,3.33
2022-12-18T07:49:05.856Z,3.63
2022-12-18T07:52:10.627Z,3.43
2022-12-18T07:55:13.628Z,3.23
2022-12-18T07:58:16.621Z,3.40
2022-12-18T08:01:19.717Z,3.40
2022-12-18T08:04:24.434Z,4.07
2022-12-18T08:07:28.822Z,4.80
2022-12-18T08:10:31.813Z,4.70
2022-12-18T08:13:34.796Z,4.40
2022-12-18T08:16:38.015Z,6.43
2022-12-18T08:19:41.002Z,5.90
2022-12-18T08:22:45.365Z,6.33
2022-12-18T08:25:48.672Z,7.47
2022-12-18T08:28:52.095Z,8.50
2022-12-18T08:31:55.150Z,8.13
2022-12-18T08:34:58.185Z,8.87
2022-12-18T08:38:02.601Z,10.07
2022-12-18T08:41:07.677Z,9.20
2022-12-18T08:44:28.146Z,9.47
2022-12-18T08:47:31.119Z,8.93
2022-12-18T08:50:34.116Z,8.80
2022-12-18T08:53:39.140Z,8.30
2022-12-18T08:56:42.448Z,8.80
2022-12-18T08:59:45.470Z,9.20
2022-12-18T09:02:48.625Z,8.83
2022-12-18T09:05:52.675Z,8.90
2022-12-18T09:08:57.152Z,8.20
2022-12-18T09:12:00.237Z,7.80
2022-12-18T09:15:03.288Z,7.90
2022-12-18T09:18:06.376Z,8.20
2022-12-18T09:21:13.942Z,8.30
2022-12-18T09:24:18.543Z,8.10
2022-12-18T09:27:21.512Z,8.50
2022-12-18T09:30:24.545Z,8.87
2022-12-18T09:33:27.675Z,8.53
2022-12-18T09:36:31.049Z,7.93
2022-12-18T09:39:35.454Z,7.77
2022-12-18T09:42:38.962Z,7.40
2022-12-18T09:45:46.497Z,8.43
2022-12-18T09:48:54.577Z,7.10
2022-12-18T09:52:01.983Z,8.40
2022-12-18T09:55:13.670Z,8.60
2022-12-18T09:58:22.706Z,8.40
2022-12-18T10:01:31.992Z,7.70
2022-12-18T10:04:40.940Z,8.23
2022-12-18T10:07:54.960Z,7.60
2022-12-18T10:11:05.655Z,7.53
2022-12-18T10:14:16.916Z,7.77
2022-12-18T10:17:28.654Z,7.60
2022-12-18T10:20:36.930Z,6.87
2022-12-18T10:23:49.078Z,8.03
2022-12-18T10:26:55.365Z,7.00
2022-12-18T10:29:59.254Z,7.70
2022-12-18T10:33:03.767Z,7.70
2022-12-18T10:36:07.348Z,7.10
2022-12-18T10:39:21.327Z,8.03
2022-12-18T10:42:25.799Z,7.03
2022-12-18T10:45:28.761Z,7.20
2022-12-18T10:48:34.136Z,7.20
2022-12-18T10:51:39.654Z,7.83
2022-12-18T10:54:50.759Z,6.90
2022-12-18T10:57:55.182Z,6.93
2022-12-18T11:01:11.194Z,7.10
2022-12-18T11:04:20.231Z,6.63
2022-12-18T11:07:23.204Z,6.77
2022-12-18T11:10:30.974Z,7.00
2022-12-18T11:13:35.770Z,7.60
2022-12-18T11:17:03.102Z,6.80
2022-12-18T11:20:21.508Z,6.83
2022-12-18T11:23:25.600Z,7.37
2022-12-18T11:26:37.332Z,6.87
2022-12-18T11:29:46.604Z,8.10
2022-12-18T11:32:52.068Z,7.00
2022-12-18T11:35:58.328Z,6.50
2022-12-18T11:39:08.486Z,6.90
2022-12-18T11:42:19.658Z,7.43
2022-12-18T11:45:30.630Z,7.30
2022-12-18T11:48:39.497Z,6.43
2022-12-18T11:51:50.313Z,7.03
2022-12-18T11:54:54.989Z,7.50
2022-12-18T11:58:06.204Z,7.50
2022-12-18T12:01:20.791Z,7.47
2022-12-18T12:04:58.477Z,8.57
2022-12-18T12:08:09.066Z,10.17
2022-12-18T12:11:25.085Z,11.40
2022-12-18T12:14:43.158Z,11.77
2022-12-18T12:17:56.698Z,10.80
2022-12-18T12:21:05.917Z,10.90
2022-12-18T12:24:25.158Z,10.30
2022-12-18T12:27:37.699Z,9.87
2022-12-18T12:30:53.427Z,10.83
2022-12-18T12:34:08.151Z,10.93
2022-12-18T12:37:21.940Z,11.10
2022-12-18T12:43:51.744Z,11.13
2022-12-18T12:46:59.579Z,11.60
2022-12-18T12:50:14.401Z,11.20
2022-12-18T12:53:27.549Z,10.27
2022-12-18T12:56:42.245Z,10.20
2022-12-18T12:59:53.135Z,9.80
2022-12-18T13:03:01.872Z,10.07
2022-12-18T13:06:15.208Z,9.70
2022-12-18T13:09:18.491Z,9.43
2022-12-18T13:12:39.136Z,9.40
2022-12-18T13:15:46.265Z,8.77
2022-12-18T13:18:52.380Z,8.80
2022-12-18T13:21:58.156Z,8.97
2022-12-18T13:25:02.073Z,7.87
2022-12-18T13:28:11.421Z,8.77
2022-12-18T13:31:15.733Z,8.67
2022-12-18T13:34:29.187Z,8.80
2022-12-18T13:37:43.767Z,8.20
2022-12-18T13:40:58.572Z,8.47
2022-12-18T13:44:13.534Z,8.23
2022-12-18T13:47:30.362Z,9.10
2022-12-18T13:50:36.114Z,7.90
2022-12-18T13:53:46.705Z,7.80
2022-12-18T13:56:51.045Z,7.77
2022-12-18T13:59:54.238Z,7.10
2022-12-18T14:02:58.480Z,8.30
2022-12-18T14:06:08.797Z,8.10
2022-12-18T14:09:21.435Z,7.23
2022-12-18T14:12:45.135Z,6.63
2022-12-18T14:15:49.954Z,7.07
2022-12-18T14:18:57.573Z,7.37
2022-12-18T14:22:18.554Z,7.10
2022-12-18T14:25:25.014Z,8.10
2022-12-18T14:28:28.162Z,8.10
2022-12-18T14:31:33.207Z,7.37
2022-12-18T14:34:36.343Z,7.47
2022-12-18T14:37:39.433Z,7.37
2022-12-18T14:40:44.034Z,6.87
2022-12-18T14:43:48.884Z,7.30
2022-12-18T14:46:53.005Z,7.00
2022-12-18T14:49:57.395Z,7.67
2022-12-18T14:53:00.671Z,7.00
2022-12-18T14:56:06.673Z,7.20
2022-12-18T14:59:22.344Z,7.20
2022-12-18T15:02:30.155Z,7.20
2022-12-18T15:05:34.343Z,6.83
2022-12-18T15:08:39.070Z,7.17
2022-12-18T15:11:50.153Z,6.97
2022-12-18T15:14:53.209Z,7.27
2022-12-18T15:18:00.963Z,6.27
2022-12-18T15:21:11.759Z,6.77
2022-12-18T15:24:20.395Z,7.37
2022-12-18T15:27:28.414Z,7.90
2022-12-18T15:30:32.760Z,7.83
2022-12-18T15:33:38.019Z,9.40
2022-12-18T15:36:41.716Z,7.50
2022-12-18T15:39:44.712Z,6.90
2022-12-18T15:43:07.715Z,6.40
2022-12-18T15:46:14.575Z,5.87
2022-12-18T15:49:17.606Z,7.63
2022-12-18T15:52:27.101Z,7.27
2022-12-18T15:55:47.728Z,6.60
2022-12-18T15:58:52.193Z,6.60
2022-12-18T16:01:55.382Z,7.50
2022-12-18T16:04:58.716Z,8.20
2022-12-18T16:08:01.802Z,7.70
2022-12-18T16:11:04.977Z,7.63
2022-12-18T16:14:17.674Z,7.33
2022-12-18T16:17:21.063Z,8.90
2022-12-18T16:20:24.715Z,8.77
2022-12-18T16:23:28.204Z,9.27
2022-12-18T16:26:34.257Z,11.33
2022-12-18T16:29:38.703Z,8.43
2022-12-18T16:32:41.756Z,8.67
2022-12-18T16:35:44.831Z,7.80
2022-12-18T16:38:47.949Z,8.83
2022-12-18T16:41:50.999Z,8.50
2022-12-18T16:44:55.412Z,8.63
2022-12-18T16:47:58.488Z,9.13
2022-12-18T16:51:03.833Z,8.33
2022-12-18T16:54:10.927Z,7.47
2022-12-18T16:57:17.899Z,7.73
2022-12-18T17:00:22.571Z,7.60
2022-12-18T17:03:25.706Z,7.70
2022-12-18T17:06:30.623Z,7.70
2022-12-18T17:09:33.641Z,8.33
2022-12-18T17:12:37.451Z,8.53
2022-12-18T17:15:41.982Z,7.37
2022-12-18T17:18:45.793Z,7.63
2022-12-18T17:21:51.161Z,7.77
2022-12-18T17:24:54.181Z,7.37
2022-12-18T17:27:57.272Z,7.47
2022-12-18T17:31:02.686Z,7.77
2022-12-18T17:34:05.952Z,8.90
2022-12-18T17:37:09.238Z,9.20
2022-12-18T17:40:12.873Z,13.87
2022-12-18T17:43:15.860Z,17.73
2022-12-18T17:46:20.371Z,20.97
2022-12-18T17:49:23.509Z,21.97
2022-12-18T17:52:26.595Z,24.70
2022-12-18T17:55:30.489Z,22.57
2022-12-18T17:58:34.225Z,21.27
2022-12-18T18:01:44.603Z,20.53
2022-12-18T18:04:48.604Z,20.73
2022-12-18T18:07:51.662Z,20.27
2022-12-18T18:11:16.428Z,19.60
2022-12-18T18:14:20.461Z,19.33
2022-12-18T18:17:24.858Z,18.93
2022-12-18T18:20:30.383Z,18.33
2022-12-18T18:23:33.621Z,19.20
2022-12-18T18:26:37.882Z,18.30
2022-12-18T18:29:41.325Z,18.53
2022-12-18T18:32:45.825Z,18.83
2022-12-18T18:35:56.030Z,16.83
2022-12-18T18:39:01.309Z,16.80
2022-12-18T18:42:04.961Z,17.27
2022-12-18T18:45:08.818Z,15.80
2022-12-18T18:48:14.168Z,15.27
2022-12-18T18:51:21.384Z,17.47
2022-12-18T18:54:24.963Z,15.70
2022-12-18T18:57:30.531Z,15.87
2022-12-18T19:00:33.848Z,15.17
2022-12-18T19:03:39.548Z,13.83
2022-12-18T19:06:44.118Z,13.77
2022-12-18T19:09:51.954Z,13.10
2022-12-18T19:13:12.439Z,13.97
2022-12-18T19:16:15.616Z,13.27
2022-12-18T19:19:23.561Z,14.07
2022-12-18T19:22:26.912Z,13.17
2022-12-18T19:25:40.159Z,13.73
2022-12-18T19:28:45.026Z,11.90
2022-12-18T19:31:48.307Z,12.37
2022-12-18T19:34:55.081Z,12.23
2022-12-18T19:37:58.644Z,12.33
2022-12-18T19:41:01.674Z,13.33
2022-12-18T19:44:08.262Z,14.60
2022-12-18T19:47:11.601Z,14.00
2022-12-18T19:50:16.249Z,13.60
2022-12-18T19:53:19.392Z,13.73
2022-12-18T19:56:25.052Z,12.87
2022-12-18T19:59:28.082Z,12.77
2022-12-18T20:02:31.250Z,12.97
2022-12-18T20:05:35.895Z,13.27
2022-12-18T20:08:39.158Z,13.43
2022-12-18T20:11:42.817Z,13.20
2022-12-18T20:14:45.900Z,12.60
2022-12-18T20:17:49.551Z,12.33
2022-12-18T20:20:54.856Z,12.77
2022-12-18T20:24:01.376Z,13.63
2022-12-18T20:27:04.602Z,14.60
2022-12-18T20:30:08.972Z,15.60
2022-12-18T20:33:12.062Z,16.70
2022-12-18T20:36:22.418Z,16.77
2022-12-18T20:39:27.584Z,15.90
2022-12-18T20:42:31.452Z,17.37
2022-12-18T20:45:34.893Z,18.70
2022-12-18T20:48:39.031Z,17.70
2022-12-18T20:51:43.396Z,18.57
2022-12-18T20:54:46.544Z,18.40
2022-12-18T20:57:49.657Z,18.30
2022-12-18T21:01:03.252Z,18.30
2022-12-18T21:04:06.322Z,17.97
2022-12-18T21:07:10.968Z,17.83
2022-12-18T21:10:13.996Z,17.53
2022-12-18T21:13:16.990Z,17.97
2022-12-18T21:16:21.910Z,16.73
2022-12-18T21:19:27.215Z,17.23
2022-12-18T21:22:31.833Z,18.00
2022-12-18T21:25:35.254Z,17.13
2022-12-18T21:28:38.266Z,16.90
2022-12-18T21:31:43.395Z,16.30
2022-12-18T21:34:48.331Z,19.40
2022-12-18T21:37:53.014Z,20.30
2022-12-18T21:40:56.103Z,20.33
2022-12-18T21:44:07.136Z,18.50
2022-12-18T21:47:20.110Z,17.73
2022-12-18T21:50:26.220Z,16.97
2022-12-18T21:53:30.645Z,17.73
2022-12-18T21:56:45.905Z,18.07
2022-12-18T21:59:49.639Z,18.77
2022-12-18T22:03:17.743Z,19.20
2022-12-18T22:06:15.634Z,18.13
2022-12-18T22:09:22.240Z,20.17
2022-12-18T22:12:43.796Z,18.77
2022-12-18T22:15:47.742Z,17.80
2022-12-18T22:18:50.822Z,17.77
2022-12-18T22:21:54.955Z,17.73
2022-12-18T22:24:59.375Z,18.30
2022-12-18T22:28:19.743Z,16.47
2022-12-18T22:31:22.753Z,18.40
2022-12-18T22:34:25.908Z,17.97
2022-12-18T22:37:29.046Z,16.77
2022-12-18T22:40:33.489Z,17.97
2022-12-18T22:43:36.578Z,19.17
2022-12-18T22:46:41.865Z,18.97
2022-12-18T22:49:44.964Z,20.93
2022-12-18T22:52:48.010Z,26.20
2022-12-18T22:55:52.414Z,21.70
2022-12-18T22:58:55.828Z,23.70
2022-12-18T23:02:01.581Z,22.27
2022-12-18T23:05:04.942Z,25.30
2022-12-18T23:08:08.004Z,28.00
2022-12-18T23:11:13.726Z,28.23
2022-12-18T23:14:18.170Z,32.03
2022-12-18T23:17:21.256Z,32.53
2022-12-18T23:20:24.308Z,28.90
2022-12-18T23:23:27.428Z,27.97
2022-12-18T23:26:32.020Z,27.47
2022-12-18T23:29:35.105Z,26.63
2022-12-18T23:32:39.368Z,27.90
2022-12-18T23:35:42.423Z,27.37
2022-12-18T23:38:50.018Z,25.87
2022-12-18T23:41:54.451Z,27.00
2022-12-18T23:44:57.536Z,27.27
2022-12-18T23:48:02.132Z,25.10
2022-12-18T23:51:07.313Z,26.00
2022-12-18T23:54:10.387Z,26.60
2022-12-18T23:57:15.095Z,27.43
